Flight Track Log - Related Links

Times and Time Zones

All times are in EDT time to prevent confusion due to time zone crossing. See the USC1098 flight status page for this flight to view local times or setup timezone preferences in your user account.

Time Position Orientation Groundspeed Altitude Reporting Facility
EDT Latitude Longitude Course Direction KTS MPH feet Rate Location/Type
Tue 05:44:56 PM 44.9333 -92.9667 153° Southeast 133 153 2,100  Level Minneapolis TRACON
Tue 05:46:02 PM 44.9167 -92.9167 115° Southeast 133 153 2,600 422 Climbing Minneapolis TRACON
Tue 05:47:04 PM 44.8942 -92.8725 126° Southeast 135 155 3,000 242 Climbing Minneapolis Center
Tue 05:48:06 PM 44.8728 -92.8236 122° Southeast 145 167 3,100 48 Climbing Minneapolis Center
Tue 05:49:08 PM 44.8497 -92.7692 121° Southeast 160 184 3,100 339 Level Minneapolis Center
Tue 05:50:00 PM 44.7089 -92.9016 153° Southeast  Level FlightAware Approximate
Tue 05:50:10 PM 44.8303 -92.7208 120° Southeast 143 165 3,800  Level Minneapolis Center
Tue 05:51:12 PM 44.8131 -92.6756 118° Southeast 132 152 4,300 484 Climbing Minneapolis Center
Tue 05:52:14 PM 44.7878 -92.6264 126° Southeast 131 151 4,800 484 Climbing Minneapolis Center
Tue 05:53:16 PM 44.7636 -92.5908 134° Southeast 125 144 5,300 532 Climbing Minneapolis Center
Tue 05:54:18 PM 44.7367 -92.5606 141° Southeast 126 145 5,900 532 Climbing Minneapolis Center
Tue 05:55:20 PM 44.7106 -92.5300 140° Southeast 124 143 6,400 484 Climbing Minneapolis Center
Tue 05:56:22 PM 44.6833 -92.5003 142° Southeast 125 144 6,900 532 Climbing Minneapolis Center
Tue 05:57:24 PM 44.6575 -92.4697 140° Southeast 121 139 7,500 581 Climbing Minneapolis Center
Tue 05:58:26 PM 44.6250 -92.4464 153° Southeast 111 128 8,100 484 Climbing Minneapolis Center
Tue 05:59:28 PM 44.5964 -92.4214 148° Southeast 120 138 8,500 387 Climbing Minneapolis Center
Tue 06:00:30 PM 44.5669 -92.3944 147° Southeast 123 142 8,900 242 Climbing Minneapolis Center
Tue 06:01:32 PM 44.5367 -92.3672 147° Southeast 134 154 9,000  Climbing Minneapolis Center
Tue 06:02:34 PM 44.5083 -92.3206 130° Southeast 146 168 8,900 -48 Descending Minneapolis Center
Tue 06:03:36 PM 44.4878 -92.2689 119° Southeast 152 175 8,900  Level Minneapolis Center
Tue 06:04:39 PM 44.4642 -92.2139 121° Southeast 153 176 8,900 -48 Level Minneapolis Center
Tue 06:05:41 PM 44.4392 -92.1667 127° Southeast 152 175 8,800  Descending Minneapolis Center
Tue 06:06:43 PM 44.4081 -92.1228 135° Southeast 147 169 8,900 32 Climbing Minneapolis Center
Tue 06:08:47 PM 44.3419 -92.0439 140° Southeast 152 175 8,900  Level Minneapolis Center
Tue 06:09:49 PM 44.3044 -92.0092 146° Southeast 151 174 8,900  Level Minneapolis Center
Tue 06:10:51 PM 44.2719 -91.9711 140° Southeast 153 176 8,900  Level Minneapolis Center
Tue 06:11:53 PM 44.2433 -91.9444 146° Southeast 152 175 8,900  Level Minneapolis Center
Tue 06:12:55 PM 44.2047 -91.8939 137° Southeast 153 176 8,900  Level Minneapolis Center
Tue 06:13:57 PM 44.1728 -91.8475 134° Southeast 155 178 8,900 -48 Level Minneapolis Center
Tue 06:15:00 PM 44.1442 -91.8058 134° Southeast 151 174 8,800  Descending Minneapolis Center
Tue 06:16:02 PM 44.1153 -91.7564 129° Southeast 154 177 8,900 48 Climbing Minneapolis Center
Tue 06:17:04 PM 44.0869 -91.7081 129° Southeast 161 185 8,900  Level Minneapolis Center
Tue 06:18:06 PM 44.0547 -91.6608 134° Southeast 163 188 8,900  Level Minneapolis Center
Tue 06:19:08 PM 44.0225 -91.6158 135° Southeast 155 178 8,900  Level Minneapolis Center
Tue 06:20:10 PM 43.9889 -91.5722 137° Southeast 160 184 8,900  Level Minneapolis Center
Tue 06:21:12 PM 43.9581 -91.5294 135° Southeast 155 178 8,900  Level Minneapolis Center
Tue 06:22:14 PM 43.9264 -91.4853 135° Southeast 155 178 8,900  Level Minneapolis Center
Tue 06:23:16 PM 43.8956 -91.4386 133° Southeast 159 183 8,900  Level Minneapolis Center
Tue 06:24:18 PM 43.8778 -91.3886 116° Southeast 152 175 8,900  Level Minneapolis Center
Tue 06:25:20 PM 43.8522 -91.3358 124° Southeast 158 182 8,900  Level Minneapolis Center
Tue 06:26:23 PM 43.8253 -91.2856 127° Southeast 157 181 8,900  Level Minneapolis Center
Tue 06:27:25 PM 43.7992 -91.2344 125° Southeast 157 181 8,900  Level Minneapolis Center
Tue 06:28:27 PM 43.7744 -91.1836 124° Southeast 153 176 8,900 -48 Level Minneapolis Center
Tue 06:29:29 PM 43.7522 -91.1328 121° Southeast 150 173 8,800  Descending Minneapolis Center
Tue 06:30:31 PM 43.7267 -91.0847 126° Southeast 147 169 8,900  Climbing Minneapolis Center
Tue 06:31:33 PM 43.6997 -91.0367 128° Southeast 152 175 8,800  Descending Minneapolis Center
Tue 06:32:47 PM 43.6761 -90.9711 116° Southeast 159 183 8,900 44 Climbing Minneapolis Center
Tue 06:33:50 PM 43.6522 -90.9167 121° Southeast 159 183 8,900  Level Minneapolis Center
Tue 06:34:52 PM 43.6239 -90.8697 130° Southeast 153 176 8,900 -48 Level Minneapolis Center
Tue 06:35:54 PM 43.5911 -90.8256 136° Southeast 158 182 8,800 48 Descending Minneapolis Center
Tue 06:36:56 PM 43.5617 -90.7825 133° Southeast 162 186 9,000 48 Climbing Minneapolis Center
Tue 06:37:58 PM 43.5431 -90.7231 113° Southeast 162 186 8,900 -48 Descending Minneapolis Center
Tue 06:39:00 PM 43.5206 -90.6694 120° Southeast 157 181 8,900  Level Minneapolis Center
Tue 06:40:02 PM 43.5000 -90.6119 116° Southeast 161 185 8,900  Level Minneapolis Center
Tue 06:41:04 PM 43.4803 -90.5553 116° Southeast 158 182 8,900  Level Minneapolis Center
Tue 06:42:06 PM 43.4617 -90.4969 114° Southeast 159 183 8,900 -48 Level Minneapolis Center
Tue 06:43:08 PM 43.4383 -90.4403 120° Southeast 163 188 8,800 -48 Descending Minneapolis Center
Tue 06:44:10 PM 43.4122 -90.3911 126° Southeast 154 177 8,800 97 Level Minneapolis Center
Tue 06:45:12 PM 43.3883 -90.3425 124° Southeast 158 182 9,000 53 Climbing Minneapolis Center
Tue 06:46:03 PM 43.3681 -90.3042 126° Southeast 156 180 8,900  Descending Chicago Center
Tue 06:47:05 PM 43.3444 -90.2497 121° Southeast 157 181 9,000 48 Climbing Chicago Center
Tue 06:48:07 PM 43.3236 -90.1953 118° Southeast 160 184 9,000 48 Level Chicago Center
Tue 06:49:09 PM 43.3008 -90.1469 123° Southeast 155 178 9,100  Climbing Chicago Center
Tue 06:50:11 PM 43.2700 -90.0922 128° Southeast 154 177 9,000 -48 Descending Chicago Center
Tue 06:51:13 PM 43.2275 -90.0714 160° South 160 184 9,000  Level Chicago Center
Tue 06:52:15 PM 43.1917 -90.0400 147° Southeast 159 183 9,000  Level Chicago Center
Tue 06:53:17 PM 43.1597 -89.9989 137° Southeast 159 183 9,000  Level Chicago Center
Tue 06:54:19 PM 43.1253 -89.9697 148° Southeast 159 183 9,000  Level Chicago Center
Tue 06:55:21 PM 43.0789 -89.9361 152° Southeast 158 182 9,000 -48 Level Chicago Center
Tue 06:56:23 PM 43.0386 -89.9047 150° Southeast 158 182 8,900  Descending Chicago Center
Tue 06:57:25 PM 42.9983 -89.8781 154° Southeast 159 183 9,000  Climbing Chicago Center
Tue 06:58:28 PM 42.9603 -89.8483 150° Southeast 159 183 8,900  Descending Chicago Center
Tue 06:59:30 PM 42.9208 -89.8194 152° Southeast 159 183 9,000 48 Climbing Chicago Center
Tue 07:00:32 PM 42.8836 -89.7875 148° Southeast 159 183 9,000  Level Chicago Center
Tue 07:01:34 PM 42.8428 -89.7414 140° Southeast 161 185 9,000  Level Chicago Center
Tue 07:02:36 PM 42.8078 -89.7025 141° Southeast 162 186 9,000  Level Chicago Center
Tue 07:03:38 PM 42.7750 -89.6600 136° Southeast 162 186 9,000  Level Chicago Center
Tue 07:04:40 PM 42.7408 -89.6217 141° Southeast 159 183 9,000  Level Chicago Center
Tue 07:05:42 PM 42.7047 -89.5875 145° Southeast 158 182 9,000 48 Level Chicago Center
Tue 07:06:44 PM 42.6594 -89.5531 151° Southeast 159 183 9,100  Climbing Chicago Center
Tue 07:07:46 PM 42.6183 -89.5258 154° Southeast 164 189 9,000 -48 Descending Chicago Center
Tue 07:08:49 PM 42.5758 -89.5083 163° South 161 185 9,000  Level Chicago Center
Tue 07:09:51 PM 42.5339 -89.4872 160° South 161 185 9,000  Level Chicago Center
Tue 07:10:53 PM 42.4928 -89.4653 159° South 159 183 9,000  Level Chicago Center
Tue 07:11:55 PM 42.4458 -89.4350 155° Southeast 160 184 9,000 48 Level Chicago Center
Tue 07:12:57 PM 42.4081 -89.4042 149° Southeast 159 183 9,100 48 Climbing Chicago Center
Tue 07:13:59 PM 42.3700 -89.3703 147° Southeast 162 186 9,100 -48 Level Chicago Center
Tue 07:15:01 PM 42.3317 -89.3397 149° Southeast 161 185 9,000 -48 Descending Chicago Center
Tue 07:16:03 PM 42.2928 -89.3150 155° Southeast 155 178 9,000  Level Chicago Center
Tue 07:17:05 PM 42.2481 -89.2828 152° Southeast 156 180 9,000  Level Chicago Center
Tue 07:18:07 PM 42.2106 -89.2525 149° Southeast 155 178 9,000  Level Chicago Center
Tue 07:19:10 PM 42.1717 -89.2244 152° Southeast 157 181 9,000 48 Level Chicago Center
Tue 07:20:12 PM 42.1342 -89.1978 152° Southeast 156 180 9,100  Climbing Chicago Center
Tue 07:21:14 PM 42.0961 -89.1639 147° Southeast 162 186 9,000 -48 Descending Chicago Center
Tue 07:22:16 PM 42.0525 -89.1506 167° South 163 188 9,000  Level Chicago Center
Tue 07:23:18 PM 42.0019 -89.1456 176° South 155 178 9,000  Level Chicago Center
Tue 07:24:20 PM 41.9597 -89.1344 169° South 155 178 9,000 48 Level Chicago Center
Tue 07:25:22 PM 41.9178 -89.1219 167° South 156 180 9,100 -48 Climbing Chicago Center
Tue 07:26:25 PM 41.8742 -89.1153 174° South 159 183 8,900  Descending Chicago Center
Tue 07:27:27 PM 41.8319 -89.1056 170° South 156 180 9,100 48 Climbing Chicago Center
Tue 07:28:29 PM 41.7814 -89.0969 173° South 153 176 9,000 -48 Descending Chicago Center
Tue 07:29:31 PM 41.7392 -89.0881 171° South 155 178 9,000 -48 Level Chicago Center
Tue 07:30:33 PM 41.6944 -89.0725 165° South 164 189 8,900  Descending Chicago Center
Tue 07:31:35 PM 41.6508 -89.0586 167° South 162 186 9,000  Climbing Chicago Center
Tue 07:32:37 PM 41.6067 -89.0475 169° South 163 188 8,900  Descending Chicago Center
Tue 07:33:39 PM 41.5544 -89.0408 175° South 159 183 9,000 48 Climbing Chicago Center
Tue 07:34:41 PM 41.5156 -89.0194 158° South 162 186 9,000  Level Chicago Center
Tue 07:35:43 PM 41.4794 -88.9814 142° Southeast 166 191 9,000  Level Chicago Center
Tue 07:36:45 PM 41.4403 -88.9544 153° Southeast 160 184 9,000  Level Chicago Center
Tue 07:37:47 PM 41.4008 -88.9211 148° Southeast 165 190 9,000  Level Chicago Center
Tue 07:38:50 PM 41.3550 -88.8858 150° Southeast 163 188 9,000  Level Chicago Center
Tue 07:39:52 PM 41.3156 -88.8569 151° Southeast 161 185 9,000 48 Level Chicago Center
Tue 07:40:54 PM 41.2928 -88.8097 123° Southeast 168 193 9,100  Climbing Chicago Center
Tue 07:41:56 PM 41.2928 -88.7511 90° East 160 184 9,000 -48 Descending Chicago Center
Tue 07:42:58 PM 41.2914 -88.6919 92° East 162 186 9,000  Level Chicago Center
Tue 07:44:00 PM 41.2889 -88.6194 93° East 164 189 9,000  Level Chicago Center
Tue 07:45:02 PM 41.2875 -88.5597 92° East 163 188 9,000  Level Chicago Center
Tue 07:46:04 PM 41.2872 -88.5008 90° East 162 186 9,000  Level Chicago Center
Tue 07:47:06 PM 41.2861 -88.4422 91° East 160 184 9,000 -48 Level Chicago Center
Tue 07:48:08 PM 41.2706 -88.3775 108° East 158 182 8,900  Descending Chicago Center
Tue 07:49:10 PM 41.2519 -88.3258 116° Southeast 157 181 9,000 48 Climbing Chicago Center
Tue 07:50:12 PM 41.2378 -88.2722 109° East 155 178 9,000  Level Chicago Center
Tue 07:51:15 PM 41.2186 -88.2169 115° Southeast 163 188 9,000  Level Chicago Center
Tue 07:52:17 PM 41.1978 -88.1653 118° Southeast 162 186 9,000  Level Chicago Center
Tue 07:53:19 PM 41.1733 -88.1008 117° Southeast 164 189 9,000  Level Chicago Center
Tue 07:54:21 PM 41.1528 -88.0483 117° Southeast 163 188 9,000  Level Chicago Center
Tue 07:55:23 PM 41.1375 -87.9942 111° Southeast 160 184 9,000  Level Chicago Center
Tue 07:56:25 PM 41.1311 -87.9364 98° East 160 184 9,000  Level Chicago Center
Tue 07:57:27 PM 41.1242 -87.8678 98° East 159 183 9,000  Level Chicago Center
Tue 07:58:29 PM 41.1172 -87.8106 99° East 158 182 9,000  Level Chicago Center
Tue 07:59:31 PM 41.1097 -87.7519 100° East 161 185 9,000  Level Chicago Center
Tue 08:00:33 PM 41.1031 -87.6953 99° East 157 181 9,000  Level Chicago Center
Tue 08:01:35 PM 41.0958 -87.6381 99° East 158 182 9,000  Level Chicago Center
Tue 08:02:37 PM 41.0900 -87.5686 96° East 159 183 9,000 48 Level Chicago Center
Tue 08:03:39 PM 41.0867 -87.5100 94° East 159 183 9,100 48 Climbing Chicago Center
Tue 08:04:41 PM 41.0836 -87.4525 94° East 159 183 9,100 -48 Level Chicago Center
Tue 08:05:43 PM 41.0769 -87.3956 99° East 157 181 9,000 -48 Descending Chicago Center
Tue 08:06:45 PM 41.0725 -87.3389 96° East 156 180 9,000  Level Chicago Center
Tue 08:07:21 PM 41.0664 -87.2944 100° East 155 178 9,000  Level Chicago Center
Tue 08:07:47 PM 41.0656 -87.2700 93° East 158 182 9,000 -100 Level Chicago Center
Tue 08:08:21 PM 41.0625 -87.2392 97° East 160 184 8,900  Descending Chicago Center
Tue 08:08:49 PM 41.0597 -87.2125 98° East 158 182 9,000 98 Climbing Chicago Center
Tue 08:09:22 PM 41.0544 -87.1806 102° East 156 180 9,000  Level Chicago Center
Tue 08:09:51 PM 41.0542 -87.1569 91° East 154 177 9,000 -98 Level Chicago Center
Tue 08:10:23 PM 41.0506 -87.1225 98° East 158 182 8,900  Descending Chicago Center
Tue 08:10:53 PM 41.0486 -87.0997 96° East 156 180 9,000  Climbing Chicago Center
Tue 08:11:23 PM 41.0444 -87.0642 99° East 157 181 8,900  Descending Chicago Center
Tue 08:11:55 PM 41.0422 -87.0436 98° East 156 180 9,000  Climbing Chicago Center
Tue 08:12:24 PM 41.0383 -87.0086 98° East 157 181 8,900  Descending Chicago Center
Tue 08:12:57 PM 41.0386 -86.9856 89° East 158 182 9,000  Climbing Chicago Center
Tue 08:13:24 PM 41.0344 -86.9503 99° East 157 181 8,900  Descending Chicago Center
Tue 08:13:59 PM 41.0319 -86.9169 96° East 158 182 9,000  Climbing Chicago Center
Tue 08:14:25 PM 41.0303 -86.8950 96° East 156 180 8,900  Descending Chicago Center
Tue 08:15:01 PM 41.0289 -86.8608 93° East 154 177 9,000  Climbing Chicago Center
Tue 08:15:26 PM 41.0242 -86.8339 103° East 157 181 8,900 97 Descending Chicago Center
Tue 08:16:03 PM 41.0228 -86.8044 94° East 155 178 9,100  Climbing Chicago Center
Tue 08:16:26 PM 41.0181 -86.7758 102° East 153 176 8,900  Descending Chicago Center
Tue 08:17:05 PM 41.0158 -86.7489 96° East 155 178 9,100  Climbing Chicago Center
Tue 08:17:27 PM 41.0136 -86.7231 96° East 152 175 8,900  Descending Chicago Center
Tue 08:18:07 PM 41.0119 -86.6878 94° East 154 177 9,100  Climbing Chicago Center
Tue 08:18:27 PM 41.0097 -86.6650 97° East 152 175 8,900 -97 Descending Chicago Center
Tue 08:19:09 PM 41.0092 -86.6322 91° East 153 176 9,000  Climbing Chicago Center
Tue 08:19:28 PM 41.0053 -86.6097 103° East 153 176 8,900 97 Descending Chicago Center
Tue 08:20:11 PM 41.0036 -86.5764 94° East 154 177 9,100  Climbing Chicago Center
Tue 08:20:29 PM 41.0011 -86.5542 98° East 152 175 8,900  Descending Chicago Center
Tue 08:21:13 PM 40.9978 -86.5208 98° East 154 177 9,100 100 Climbing Chicago Center
Tue 08:21:29 PM 40.9947 -86.4989 100° East 151 174 9,000 -97 Descending Chicago Center
Tue 08:22:15 PM 40.9947 -86.4539 90° East 154 177 9,000 -98 Level Chicago Center
Tue 08:22:30 PM 40.9925 -86.4408 103° East 154 177 8,900  Descending Chicago Center
Tue 08:23:17 PM 40.9911 -86.3972 92° East 157 181 9,000 55 Climbing Chicago Center
Tue 08:24:19 PM 40.9886 -86.3425 93° East 153 176 9,000  Level Chicago Center
Tue 08:25:21 PM 40.9850 -86.2858 95° East 155 178 9,000  Level Chicago Center
Tue 08:26:24 PM 40.9764 -86.2303 102° East 157 181 9,000  Level Chicago Center
Tue 08:27:26 PM 40.9667 -86.1742 103° East 158 182 9,000 -48 Level Chicago Center
Tue 08:28:28 PM 40.9503 -86.1117 109° East 154 177 8,900 -48 Descending Chicago Center
Tue 08:29:30 PM 40.9336 -86.0583 112° Southeast 157 181 8,900  Level Chicago Center
Tue 08:30:32 PM 40.9172 -86.0072 113° Southeast 153 176 8,900  Level Chicago Center
Tue 08:31:34 PM 40.9006 -85.9567 114° Southeast 152 175 8,900  Level Chicago Center
Tue 08:32:36 PM 40.8842 -85.9061 113° Southeast 152 175 8,900  Level Chicago Center
Tue 08:33:38 PM 40.8567 -85.8453 121° Southeast 159 183 8,900 -48 Level Chicago Center
Tue 08:34:40 PM 40.8344 -85.7978 122° Southeast 156 180 8,800  Descending Chicago Center
Tue 08:35:42 PM 40.8150 -85.7483 117° Southeast 154 177 8,900 48 Climbing Chicago Center
Tue 08:36:44 PM 40.7950 -85.6983 118° Southeast 154 177 8,900  Level Chicago Center
Tue 08:37:46 PM 40.7758 -85.6464 116° Southeast 157 181 8,900  Level Chicago Center
Tue 08:38:48 PM 40.7589 -85.5958 114° Southeast 153 176 8,900  Level Chicago Center
Tue 08:39:51 PM 40.7375 -85.5319 114° Southeast 157 181 8,900  Level Chicago Center
Tue 08:40:53 PM 40.7203 -85.4792 113° Southeast 158 182 8,900  Level Chicago Center
Tue 08:41:55 PM 40.7019 -85.4289 116° Southeast 155 178 8,900  Level Chicago Center
Tue 08:42:57 PM 40.6914 -85.3775 105° East 150 173 8,900  Level Chicago Center
Tue 08:43:59 PM 40.6772 -85.3258 110° East 149 171 8,900  Level Chicago Center
Tue 08:45:01 PM 40.6639 -85.2744 109° East 150 173 8,900  Level Chicago Center
Tue 08:46:03 PM 40.6575 -85.2194 99° East 146 168 8,900  Level Chicago Center
Tue 08:47:05 PM 40.6514 -85.1547 97° East 148 170 8,900  Level Chicago Center
Tue 08:48:07 PM 40.6422 -85.1042 103° East 145 167 8,900  Level Chicago Center
Tue 08:49:09 PM 40.6286 -85.0519 109° East 149 171 8,900  Level Chicago Center
Tue 08:50:11 PM 40.6153 -85.0017 109° East 147 169 8,900  Level Chicago Center
Tue 08:51:13 PM 40.6003 -84.9508 111° Southeast 149 171 8,900  Level Chicago Center
Tue 08:52:19 PM 40.5781 -84.8958 118° Southeast 151 174 8,900  Level Indianapolis Center
Tue 08:53:20 PM 40.5578 -84.8472 119° Southeast 152 175 8,900  Level Indianapolis Center
Tue 08:54:22 PM 40.5442 -84.7942 109° East 151 174 8,900  Level Indianapolis Center
Tue 08:55:23 PM 40.5281 -84.7336 109° East 149 171 8,900  Level Indianapolis Center
Tue 08:56:25 PM 40.5100 -84.6833 115° Southeast 151 174 8,900 49 Level Indianapolis Center
Tue 08:57:26 PM 40.4908 -84.6331 117° Southeast 153 176 9,000  Climbing Indianapolis Center
Tue 08:57:51 PM 40.4831 -84.6111 115° Southeast 151 174 8,900  Descending Indianapolis Center
Tue 08:58:28 PM 40.4744 -84.5825 112° Southeast 150 173 9,000  Climbing Indianapolis Center
Tue 08:58:51 PM 40.4661 -84.5622 118° Southeast 150 173 8,900 -98 Descending Indianapolis Center
Tue 08:59:29 PM 40.4558 -84.5322 114° Southeast 151 174 8,900  Level Indianapolis Center
Tue 08:59:52 PM 40.4469 -84.5156 125° Southeast 150 173 8,900  Level Indianapolis Center
Tue 09:00:30 PM 40.4311 -84.4869 126° Southeast 151 174 8,900  Level Indianapolis Center
Tue 09:00:53 PM 40.4172 -84.4675 133° Southeast 153 176 8,900  Level Indianapolis Center
Tue 09:01:32 PM 40.4119 -84.4408 105° East 147 169 8,900 98 Level Indianapolis Center
Tue 09:01:54 PM 40.4044 -84.4192 114° Southeast 143 165 9,000 197 Climbing Indianapolis Center
Tue 09:02:33 PM 40.3967 -84.3914 110° East 144 166 9,100 -90 Climbing Indianapolis Center
Tue 09:03:01 PM 40.3897 -84.3653 109° East 146 168 8,900 -98 Descending Indianapolis Center
Tue 09:03:34 PM 40.3847 -84.3392 104° East 147 169 9,000 100 Climbing Indianapolis Center
Tue 09:04:01 PM 40.3772 -84.3142 111° Southeast 147 169 9,000  Level Indianapolis Center
Tue 09:04:36 PM 40.3700 -84.2897 111° Southeast 146 168 9,000 -98 Level Indianapolis Center
Tue 09:05:02 PM 40.3622 -84.2656 113° Southeast 147 169 8,900  Descending Indianapolis Center
Tue 09:05:37 PM 40.3556 -84.2378 107° East 149 171 9,000  Climbing Indianapolis Center
Tue 09:06:03 PM 40.3475 -84.2114 112° Southeast 146 168 8,900 97 Descending Indianapolis Center
Tue 09:06:39 PM 40.3417 -84.1869 107° East 147 169 9,100  Climbing Indianapolis Center
Tue 09:07:03 PM 40.3325 -84.1603 114° Southeast 150 173 8,900 -98 Descending Indianapolis Center
Tue 09:07:40 PM 40.3272 -84.1350 105° East 150 173 9,000 -295 Climbing Indianapolis Center
Tue 09:08:04 PM 40.3181 -84.1061 113° Southeast 153 176 8,600 -689 Descending Indianapolis Center
Tue 09:08:41 PM 40.3083 -84.0817 118° Southeast 157 181 8,300 -689 Descending Indianapolis Center
Tue 09:09:05 PM 40.2928 -84.0536 126° Southeast 175 201 7,900 -677 Descending Indianapolis Center
Tue 09:09:43 PM 40.2808 -84.0178 114° Southeast 168 193 7,600 -700 Descending Indianapolis Center
Tue 09:10:05 PM 40.2717 -84.0017 127° Southeast 165 190 7,200 -689 Descending Indianapolis Center
Tue 09:10:44 PM 40.2581 -83.9639 115° Southeast 167 192 6,900 -537 Descending Indianapolis Center
Tue 09:11:12 PM 40.2469 -83.9411 123° Southeast 164 189 6,600 -590 Descending Indianapolis Center
Tue 09:11:45 PM 40.2358 -83.9122 117° Southeast 165 190 6,300 -655 Descending Indianapolis Center
Tue 09:12:07 PM 40.2272 -83.8975 127° Southeast 162 186 6,000 -484 Descending Indianapolis Center
Tue 09:12:47 PM 40.2131 -83.8600 116° Southeast 163 188 5,800 -600 Descending Indianapolis Center
Tue 09:13:07 PM 40.2058 -83.8456 123° Southeast 162 186 5,400 -590 Descending Indianapolis Center
Tue 09:13:48 PM 40.1925 -83.8078 115° Southeast 162 186 5,200 -492 Descending Indianapolis Center
Tue 09:14:08 PM 40.1831 -83.7881 122° Southeast 162 186 4,900 -197 Descending Indianapolis Center
Tue 09:14:49 PM 40.1725 -83.7564 114° Southeast 160 184 5,000 98 Climbing Indianapolis Center
Tue 09:15:09 PM 40.1636 -83.7392 124° Southeast 153 176 5,000  Level Indianapolis Center
Tue 09:15:50 PM 40.1533 -83.7083 114° Southeast 154 177 5,000 -100 Level Indianapolis Center
Tue 09:16:09 PM 40.1461 -83.6906 118° Southeast 145 167 4,900 97 Descending Indianapolis Center
Tue 09:16:52 PM 40.1344 -83.6611 117° Southeast 148 170 5,100  Climbing Indianapolis Center
Tue 09:17:16 PM 40.1247 -83.6414 123° Southeast 143 165 4,900  Descending Indianapolis Center
Tue 09:17:53 PM 40.1158 -83.6158 114° Southeast 144 166 5,100 98 Climbing Indianapolis Center
Tue 09:18:17 PM 40.1072 -83.5956 119° Southeast 142 163 5,000 -393 Descending Indianapolis Center
Tue 09:18:54 PM 40.0958 -83.5694 120° Southeast 143 165 4,700 -700 Descending Indianapolis Center
Tue 09:19:17 PM 40.0856 -83.5467 121° Southeast 152 175 4,300 -484 Descending Indianapolis Center
Tue 09:19:56 PM 40.0733 -83.5194 120° Southeast 150 173 4,200 -393 Descending Indianapolis Center
Tue 09:20:18 PM 40.0619 -83.4972 124° Southeast 158 182 3,900 -590 Descending Indianapolis Center
Tue 09:20:57 PM 40.0517 -83.4694 116° Southeast 155 178 3,600 -492 Descending Indianapolis Center
Tue 09:21:19 PM 40.0403 -83.4483 125° Southeast 158 182 3,400 -492 Descending Indianapolis Center
Tue 09:21:58 PM 40.0286 -83.4192 118° Southeast 157 181 3,100 -500 Descending Indianapolis Center
Tue 09:22:19 PM 40.0189 -83.3967 119° Southeast 161 185 2,900 -197 Descending Indianapolis Center
Tue 09:22:59 PM 40.0067 -83.3681 119° Southeast 159 183 2,900  Level Indianapolis Center
Tue 09:23:20 PM 39.9972 -83.3478 121° Southeast 151 174 2,900 97 Level Indianapolis Center
Tue 09:24:01 PM 39.9842 -83.3231 125° Southeast 152 175 3,000 59 Climbing Indianapolis Center
Tue 09:25:02 PM 39.9619 -83.2803 124° Southeast 145 167 3,000  Level Indianapolis Center
Tue 09:26:03 PM 39.9400 -83.2347 122° Southeast 144 166 3,000  Level Indianapolis Center
Tue 09:27:17 PM 39.9111 -83.1744 122° Southeast 144 166 3,000  Level Indianapolis Center
Tue 09:28:06 PM 39.8981 -83.1447 120° Southeast 143 165 3,000 -52 Level Indianapolis Center
Tue 09:29:12 PM 39.8683 -83.0986 130° Southeast 151 174 2,900  Descending Indianapolis Center
Tue 09:30:09 PM 39.8331 -83.0925 172° South 157 181 3,000 51 Climbing Indianapolis Center
Tue 09:31:10 PM 39.7806 -83.0986 185° South 160 184 3,000 -146 Level Indianapolis Center
Tue 09:32:12 PM 39.7597 -83.0478 118° Southeast 157 181 2,700 -537 Descending Indianapolis Center
Tue 09:33:13 PM 39.7653 -82.9975 82° East 148 170 1,900 -738 Descending Indianapolis Center
Tue 09:34:14 PM 39.7886 -82.9608 50° Northeast 137 158 1,200 -488 Descending Indianapolis Center
Tue 09:35:16 PM 39.8125 -82.9297 45° Northeast 130 150 900 -290 Descending Indianapolis Center

Login

Don't have an account? Register now (free) for customized features, flight alerts, and more!